BAW996G EGLL-EDDB
Flight info
| Callsign | BAW996G |
|---|---|
| Flight time | 1h 23m |
| Altitude | 35000 |
| Route | BPK6J BPK Q295 BRAIN M197 REDFA DCT TACHA DCT NIE DCT BATEL T207 OGBER OGBER1R |
| Aircraft | A320/M-SDE3FGIJ1KRWXY/SB1 |
Departure
| Time | 2026-05-05 16:25 |
|---|---|
| Airport | London Heathrow Airport (EGLL) |
Arrival
| Time | 2026-05-05 17:48 |
|---|---|
| Airport | Berlin Brandenburg Airport (EDDB) |
| Time | Latitude | Longitude | Altitude | Speed | Heading |
|---|---|---|---|---|---|
| 2026-05-05 15:32 | 51.46931 | -0.48647 | 90 ft | 0 kts | 360° |
| 2026-05-05 16:08 | 51.46908 | -0.48647 | 90 ft | 4 kts | 360° |
| 2026-05-05 16:09 | 51.46888 | -0.48647 | 88 ft | 4 kts | 335° |
| 2026-05-05 16:09 | 51.46877 | -0.48621 | 89 ft | 3 kts | 270° |
| 2026-05-05 16:09 | 51.46877 | -0.48592 | 86 ft | 0 kts | 270° |
| 2026-05-05 16:12 | 51.46877 | -0.48593 | 86 ft | 0 kts | 270° |
| 2026-05-05 16:13 | 51.46877 | -0.48664 | 88 ft | 0 kts | 269° |
| 2026-05-05 16:13 | 51.46877 | -0.48671 | 86 ft | 2 kts | 269° |
| 2026-05-05 16:14 | 51.46862 | -0.48742 | 87 ft | 2 kts | 208° |
| 2026-05-05 16:14 | 51.46847 | -0.48750 | 87 ft | 3 kts | 196° |
| 2026-05-05 16:15 | 51.46808 | -0.48752 | 87 ft | 0 kts | 179° |
| 2026-05-05 16:15 | 51.46804 | -0.48752 | 87 ft | 2 kts | 178° |
| 2026-05-05 16:16 | 51.46729 | -0.48749 | 86 ft | 8 kts | 180° |
| 2026-05-05 16:16 | 51.46650 | -0.48748 | 86 ft | 0 kts | 181° |
| 2026-05-05 16:19 | 51.46647 | -0.48748 | 86 ft | 1 kts | 182° |
| 2026-05-05 16:20 | 51.46596 | -0.48769 | 89 ft | 0 kts | 198° |
| 2026-05-05 16:23 | 51.46527 | -0.48783 | 89 ft | 11 kts | 167° |
| 2026-05-05 16:23 | 51.46478 | -0.48675 | 86 ft | 14 kts | 96° |
| 2026-05-05 16:23 | 51.46478 | -0.48602 | 86 ft | 0 kts | 89° |
| 2026-05-05 16:24 | 51.46478 | -0.48588 | 89 ft | 6 kts | 89° |
| 2026-05-05 16:24 | 51.46480 | -0.48152 | 88 ft | 76 kts | 90° |
| 2026-05-05 16:24 | 51.46488 | -0.45576 | 157 ft | 164 kts | 87° |
| 2026-05-05 16:25 | 51.46491 | -0.43845 | 831 ft | 162 kts | 88° |
| 2026-05-05 16:25 | 51.46652 | -0.40099 | 1759 ft | 190 kts | 69° |
| 2026-05-05 16:25 | 51.47338 | -0.38173 | 2054 ft | 210 kts | 49° |
| 2026-05-05 16:26 | 51.49537 | -0.34234 | 3177 ft | 247 kts | 49° |
| 2026-05-05 16:26 | 51.51790 | -0.29939 | 5042 ft | 257 kts | 50° |
| 2026-05-05 16:27 | 51.52794 | -0.27482 | 5983 ft | 262 kts | 63° |
| 2026-05-05 16:27 | 51.53439 | -0.24744 | 6811 ft | 269 kts | 68° |
| 2026-05-05 16:27 | 51.54396 | -0.22147 | 7623 ft | 272 kts | 48° |
| 2026-05-05 16:27 | 51.55874 | -0.20218 | 8493 ft | 275 kts | 27° |
| 2026-05-05 16:28 | 51.57674 | -0.19085 | 9380 ft | 280 kts | 19° |
| 2026-05-05 16:28 | 51.59516 | -0.17977 | 10172 ft | 286 kts | 17° |
| 2026-05-05 16:28 | 51.61495 | -0.16977 | 10471 ft | 310 kts | 16° |
| 2026-05-05 16:28 | 51.63639 | -0.15934 | 10779 ft | 330 kts | 15° |
| 2026-05-05 16:29 | 51.65893 | -0.14865 | 11457 ft | 336 kts | 16° |
| 2026-05-05 16:29 | 51.68140 | -0.13817 | 12223 ft | 341 kts | 16° |
| 2026-05-05 16:29 | 51.70417 | -0.12638 | 12935 ft | 346 kts | 23° |
| 2026-05-05 16:29 | 51.72481 | -0.10642 | 13633 ft | 350 kts | 39° |
| 2026-05-05 16:30 | 51.74170 | -0.07764 | 14270 ft | 355 kts | 54° |
| 2026-05-05 16:30 | 51.75319 | -0.04222 | 14879 ft | 359 kts | 70° |
| 2026-05-05 16:30 | 51.75855 | -0.00263 | 15488 ft | 363 kts | 82° |
| 2026-05-05 16:30 | 51.76185 | 0.03795 | 16098 ft | 365 kts | 82° |
| 2026-05-05 16:31 | 51.76519 | 0.07883 | 16718 ft | 368 kts | 82° |
| 2026-05-05 16:31 | 51.76855 | 0.12000 | 17327 ft | 372 kts | 82° |
| 2026-05-05 16:31 | 51.77197 | 0.16171 | 17935 ft | 376 kts | 82° |
| 2026-05-05 16:31 | 51.77546 | 0.20386 | 18508 ft | 380 kts | 82° |
| 2026-05-05 16:32 | 51.77895 | 0.24631 | 19038 ft | 383 kts | 82° |
| 2026-05-05 16:32 | 51.78244 | 0.28913 | 19583 ft | 387 kts | 82° |
| 2026-05-05 16:32 | 51.78596 | 0.33264 | 20132 ft | 391 kts | 82° |
| 2026-05-05 16:32 | 51.78947 | 0.37634 | 20659 ft | 395 kts | 82° |
| 2026-05-05 16:33 | 51.79299 | 0.42060 | 21144 ft | 398 kts | 82° |
| 2026-05-05 16:33 | 51.79651 | 0.46520 | 21653 ft | 401 kts | 82° |
| 2026-05-05 16:33 | 51.80006 | 0.51013 | 22146 ft | 404 kts | 83° |
| 2026-05-05 16:33 | 51.80363 | 0.55553 | 22673 ft | 407 kts | 83° |
| 2026-05-05 16:34 | 51.80720 | 0.60100 | 23167 ft | 410 kts | 83° |
| 2026-05-05 16:34 | 51.81096 | 0.64692 | 23537 ft | 415 kts | 80° |
| 2026-05-05 16:34 | 51.81750 | 0.69271 | 23919 ft | 419 kts | 76° |
| 2026-05-05 16:34 | 51.82462 | 0.73856 | 24311 ft | 422 kts | 76° |
| 2026-05-05 16:35 | 51.83167 | 0.78425 | 24734 ft | 424 kts | 77° |
| 2026-05-05 16:35 | 51.83885 | 0.83061 | 25151 ft | 426 kts | 76° |
| 2026-05-05 16:35 | 51.84670 | 0.87708 | 25559 ft | 429 kts | 75° |
| 2026-05-05 16:35 | 51.85494 | 0.92235 | 25953 ft | 431 kts | 74° |
| 2026-05-05 16:36 | 51.86392 | 0.97001 | 26359 ft | 434 kts | 74° |
| 2026-05-05 16:36 | 51.87277 | 1.01676 | 26784 ft | 435 kts | 75° |
| 2026-05-05 16:36 | 51.88154 | 1.06360 | 27206 ft | 436 kts | 75° |
| 2026-05-05 16:36 | 51.89025 | 1.11070 | 27612 ft | 438 kts | 75° |
| 2026-05-05 16:37 | 51.89890 | 1.15832 | 28001 ft | 441 kts | 76° |
| 2026-05-05 16:37 | 51.90743 | 1.20601 | 28403 ft | 443 kts | 75° |
| 2026-05-05 16:37 | 51.91597 | 1.25425 | 28782 ft | 445 kts | 75° |
| 2026-05-05 16:37 | 51.92449 | 1.30241 | 29172 ft | 448 kts | 76° |
| 2026-05-05 16:38 | 51.93311 | 1.35108 | 29574 ft | 450 kts | 75° |
| 2026-05-05 16:38 | 51.94178 | 1.40012 | 29938 ft | 453 kts | 76° |
| 2026-05-05 16:38 | 51.95049 | 1.44946 | 30260 ft | 455 kts | 76° |
| 2026-05-05 16:38 | 51.95926 | 1.49901 | 30548 ft | 458 kts | 75° |
| 2026-05-05 16:39 | 51.96803 | 1.54850 | 30954 ft | 458 kts | 76° |
| 2026-05-05 16:39 | 51.97679 | 1.59816 | 31418 ft | 457 kts | 76° |
| 2026-05-05 16:39 | 51.98549 | 1.64767 | 31911 ft | 455 kts | 76° |
| 2026-05-05 16:39 | 51.99409 | 1.69703 | 32411 ft | 453 kts | 76° |
| 2026-05-05 16:40 | 52.00228 | 1.74655 | 32917 ft | 451 kts | 77° |
| 2026-05-05 16:40 | 52.00999 | 1.79583 | 33413 ft | 449 kts | 78° |
| 2026-05-05 16:40 | 52.01738 | 1.84469 | 33917 ft | 448 kts | 78° |
| 2026-05-05 16:40 | 52.02473 | 1.89384 | 34331 ft | 447 kts | 78° |
| 2026-05-05 16:41 | 52.03209 | 1.94280 | 34686 ft | 447 kts | 78° |
| 2026-05-05 16:41 | 52.03964 | 1.99263 | 34886 ft | 451 kts | 78° |
| 2026-05-05 16:41 | 52.05479 | 2.09166 | 34951 ft | 455 kts | 78° |
| 2026-05-05 16:42 | 52.07014 | 2.19177 | 34948 ft | 455 kts | 78° |
| 2026-05-05 16:42 | 52.08531 | 2.29185 | 34952 ft | 455 kts | 78° |
| 2026-05-05 16:43 | 52.10034 | 2.39187 | 34951 ft | 455 kts | 78° |
| 2026-05-05 16:43 | 52.11529 | 2.49211 | 34938 ft | 456 kts | 78° |
| 2026-05-05 16:44 | 52.13281 | 2.59149 | 34934 ft | 457 kts | 74° |
| 2026-05-05 16:44 | 52.15260 | 2.69011 | 34936 ft | 458 kts | 73° |
| 2026-05-05 16:45 | 52.17219 | 2.78884 | 34936 ft | 458 kts | 75° |
| 2026-05-05 16:45 | 52.18780 | 2.87128 | 34937 ft | 458 kts | 75° |
| 2026-05-05 16:46 | 52.20617 | 2.97089 | 34932 ft | 458 kts | 76° |
| 2026-05-05 16:46 | 52.22459 | 3.07062 | 34943 ft | 459 kts | 76° |
| 2026-05-05 16:47 | 52.24311 | 3.17030 | 34975 ft | 459 kts | 75° |
| 2026-05-05 16:47 | 52.25880 | 3.27087 | 34972 ft | 456 kts | 85° |
| 2026-05-05 16:48 | 52.26743 | 3.37356 | 34963 ft | 456 kts | 84° |
| 2026-05-05 16:48 | 52.27625 | 3.47606 | 34945 ft | 456 kts | 85° |
| 2026-05-05 16:49 | 52.28502 | 3.57884 | 34928 ft | 457 kts | 85° |
| 2026-05-05 16:49 | 52.29365 | 3.68187 | 34931 ft | 458 kts | 85° |
| 2026-05-05 16:50 | 52.30215 | 3.78519 | 34923 ft | 459 kts | 85° |
| 2026-05-05 16:50 | 52.31063 | 3.88871 | 34931 ft | 459 kts | 85° |
| 2026-05-05 16:51 | 52.31895 | 3.99229 | 34921 ft | 460 kts | 86° |
| 2026-05-05 16:51 | 52.32720 | 4.09620 | 34915 ft | 461 kts | 86° |
| 2026-05-05 16:52 | 52.33540 | 4.19963 | 34910 ft | 462 kts | 86° |
| 2026-05-05 16:52 | 52.34358 | 4.30399 | 34914 ft | 462 kts | 86° |
| 2026-05-05 16:53 | 52.35159 | 4.40843 | 34910 ft | 462 kts | 86° |
| 2026-05-05 16:53 | 52.35954 | 4.51279 | 34915 ft | 463 kts | 86° |
| 2026-05-05 16:54 | 52.36743 | 4.61732 | 34914 ft | 463 kts | 86° |
| 2026-05-05 16:54 | 52.37518 | 4.72180 | 34924 ft | 462 kts | 86° |
| 2026-05-05 16:55 | 52.38283 | 4.82643 | 34925 ft | 462 kts | 87° |
| 2026-05-05 16:55 | 52.39039 | 4.93112 | 34924 ft | 462 kts | 87° |
| 2026-05-05 16:56 | 52.39794 | 5.03554 | 34926 ft | 462 kts | 86° |
| 2026-05-05 16:56 | 52.40540 | 5.13991 | 34941 ft | 461 kts | 86° |
| 2026-05-05 16:57 | 52.41273 | 5.24433 | 34928 ft | 460 kts | 87° |
| 2026-05-05 16:57 | 52.41985 | 5.34868 | 34920 ft | 461 kts | 87° |
| 2026-05-05 16:58 | 52.42676 | 5.45063 | 34921 ft | 461 kts | 87° |
| 2026-05-05 16:58 | 52.43379 | 5.55536 | 34908 ft | 462 kts | 87° |
| 2026-05-05 16:59 | 52.44069 | 5.66034 | 34904 ft | 463 kts | 87° |
| 2026-05-05 16:59 | 52.44758 | 5.76549 | 34911 ft | 463 kts | 87° |
| 2026-05-05 17:00 | 52.45444 | 5.87048 | 34919 ft | 463 kts | 87° |
| 2026-05-05 17:00 | 52.46111 | 5.97573 | 34921 ft | 463 kts | 87° |
| 2026-05-05 17:01 | 52.46767 | 6.08101 | 34910 ft | 464 kts | 87° |
| 2026-05-05 17:01 | 52.47418 | 6.18626 | 34916 ft | 464 kts | 87° |
| 2026-05-05 17:02 | 52.48059 | 6.29131 | 34925 ft | 465 kts | 87° |
| 2026-05-05 17:02 | 52.48685 | 6.39695 | 34922 ft | 465 kts | 88° |
| 2026-05-05 17:03 | 52.49307 | 6.50260 | 34909 ft | 465 kts | 88° |
| 2026-05-05 17:03 | 52.49920 | 6.60853 | 34909 ft | 465 kts | 88° |
| 2026-05-05 17:04 | 52.50521 | 6.71426 | 34901 ft | 466 kts | 88° |
| 2026-05-05 17:04 | 52.51121 | 6.81982 | 34910 ft | 466 kts | 88° |
| 2026-05-05 17:05 | 52.51710 | 6.92598 | 34902 ft | 467 kts | 88° |
| 2026-05-05 17:05 | 52.52290 | 7.03231 | 34887 ft | 467 kts | 89° |
| 2026-05-05 17:06 | 52.52857 | 7.13879 | 34888 ft | 468 kts | 89° |
| 2026-05-05 17:06 | 52.53417 | 7.24545 | 34886 ft | 468 kts | 89° |
| 2026-05-05 17:07 | 52.53976 | 7.35215 | 34901 ft | 469 kts | 89° |
| 2026-05-05 17:07 | 52.54522 | 7.45887 | 34902 ft | 469 kts | 89° |
| 2026-05-05 17:08 | 52.55052 | 7.56580 | 34871 ft | 470 kts | 90° |
| 2026-05-05 17:08 | 52.55575 | 7.67286 | 34871 ft | 471 kts | 90° |
| 2026-05-05 17:09 | 52.56089 | 7.78047 | 34874 ft | 472 kts | 90° |
| 2026-05-05 17:09 | 52.56601 | 7.88827 | 34883 ft | 473 kts | 90° |
| 2026-05-05 17:10 | 52.57099 | 7.99543 | 34882 ft | 473 kts | 90° |
| 2026-05-05 17:10 | 52.57581 | 8.10342 | 34877 ft | 474 kts | 90° |
| 2026-05-05 17:11 | 52.58058 | 8.21154 | 34885 ft | 474 kts | 90° |
| 2026-05-05 17:11 | 52.58536 | 8.32058 | 34889 ft | 474 kts | 90° |
| 2026-05-05 17:12 | 52.59004 | 8.42889 | 34889 ft | 475 kts | 90° |
| 2026-05-05 17:12 | 52.59458 | 8.53707 | 34874 ft | 475 kts | 91° |
| 2026-05-05 17:13 | 52.59900 | 8.64623 | 34877 ft | 475 kts | 91° |
| 2026-05-05 17:13 | 52.60333 | 8.75479 | 34883 ft | 475 kts | 91° |
| 2026-05-05 17:14 | 52.60751 | 8.86312 | 34880 ft | 475 kts | 91° |
| 2026-05-05 17:14 | 52.61156 | 8.97152 | 34882 ft | 474 kts | 91° |
| 2026-05-05 17:15 | 52.61495 | 9.06167 | 34878 ft | 475 kts | 91° |
| 2026-05-05 17:15 | 52.61892 | 9.17034 | 34877 ft | 475 kts | 91° |
| 2026-05-05 17:16 | 52.62289 | 9.28266 | 34878 ft | 476 kts | 91° |
| 2026-05-05 17:16 | 52.62523 | 9.39002 | 34866 ft | 472 kts | 98° |
| 2026-05-05 17:17 | 52.62094 | 9.49784 | 34870 ft | 471 kts | 98° |
| 2026-05-05 17:17 | 52.61671 | 9.60559 | 34892 ft | 471 kts | 98° |
| 2026-05-05 17:18 | 52.61234 | 9.71346 | 34893 ft | 472 kts | 98° |
| 2026-05-05 17:18 | 52.60783 | 9.82128 | 34884 ft | 473 kts | 98° |
| 2026-05-05 17:19 | 52.60321 | 9.92951 | 34887 ft | 474 kts | 99° |
| 2026-05-05 17:19 | 52.59854 | 10.03763 | 34885 ft | 474 kts | 98° |
| 2026-05-05 17:20 | 52.59377 | 10.14599 | 34802 ft | 474 kts | 98° |
| 2026-05-05 17:20 | 52.59135 | 10.20018 | 34181 ft | 475 kts | 99° |
| 2026-05-05 17:20 | 52.58886 | 10.25445 | 33461 ft | 476 kts | 99° |
| 2026-05-05 17:21 | 52.58634 | 10.30877 | 32992 ft | 474 kts | 99° |
| 2026-05-05 17:21 | 52.58379 | 10.36299 | 32835 ft | 476 kts | 99° |
| 2026-05-05 17:22 | 52.57600 | 10.52580 | 32874 ft | 478 kts | 99° |
| 2026-05-05 17:22 | 52.57076 | 10.63493 | 32870 ft | 479 kts | 99° |
| 2026-05-05 17:22 | 52.56807 | 10.68979 | 32704 ft | 479 kts | 99° |
| 2026-05-05 17:23 | 52.56535 | 10.74441 | 32438 ft | 479 kts | 99° |
| 2026-05-05 17:23 | 52.56261 | 10.79898 | 32172 ft | 478 kts | 99° |
| 2026-05-05 17:23 | 52.55985 | 10.85344 | 31911 ft | 477 kts | 99° |
| 2026-05-05 17:23 | 52.55708 | 10.90759 | 31650 ft | 475 kts | 99° |
| 2026-05-05 17:24 | 52.55427 | 10.96156 | 31365 ft | 472 kts | 99° |
| 2026-05-05 17:24 | 52.55145 | 11.01511 | 30769 ft | 469 kts | 98° |
| 2026-05-05 17:24 | 52.54862 | 11.06851 | 30189 ft | 465 kts | 98° |
| 2026-05-05 17:24 | 52.54743 | 11.12159 | 29623 ft | 464 kts | 91° |
| 2026-05-05 17:25 | 52.54876 | 11.17423 | 29029 ft | 460 kts | 90° |
| 2026-05-05 17:25 | 52.54963 | 11.20939 | 28639 ft | 456 kts | 90° |
| 2026-05-05 17:25 | 52.55127 | 11.27825 | 27880 ft | 451 kts | 90° |
| 2026-05-05 17:25 | 52.55246 | 11.32962 | 27323 ft | 446 kts | 91° |
| 2026-05-05 17:26 | 52.55358 | 11.38041 | 26776 ft | 442 kts | 91° |
| 2026-05-05 17:26 | 52.55463 | 11.43074 | 26240 ft | 438 kts | 91° |
| 2026-05-05 17:26 | 52.55564 | 11.48055 | 25722 ft | 434 kts | 91° |
| 2026-05-05 17:26 | 52.55664 | 11.52939 | 25203 ft | 430 kts | 91° |
| 2026-05-05 17:27 | 52.55766 | 11.57901 | 24678 ft | 427 kts | 91° |
| 2026-05-05 17:27 | 52.55863 | 11.62696 | 24187 ft | 424 kts | 91° |
| 2026-05-05 17:27 | 52.55960 | 11.67591 | 23688 ft | 420 kts | 91° |
| 2026-05-05 17:27 | 52.56052 | 11.72312 | 23137 ft | 406 kts | 91° |
| 2026-05-05 17:28 | 52.56140 | 11.76867 | 22608 ft | 391 kts | 91° |
| 2026-05-05 17:28 | 52.56222 | 11.81199 | 22082 ft | 378 kts | 91° |
| 2026-05-05 17:28 | 52.56301 | 11.85453 | 21561 ft | 368 kts | 91° |
| 2026-05-05 17:28 | 52.56375 | 11.89623 | 21045 ft | 363 kts | 91° |
| 2026-05-05 17:29 | 52.56443 | 11.93841 | 20536 ft | 364 kts | 90° |
| 2026-05-05 17:29 | 52.56507 | 11.98003 | 20037 ft | 364 kts | 90° |
| 2026-05-05 17:29 | 52.56570 | 12.02174 | 19546 ft | 364 kts | 90° |
| 2026-05-05 17:29 | 52.56634 | 12.06342 | 19064 ft | 364 kts | 90° |
| 2026-05-05 17:30 | 52.56693 | 12.10486 | 18575 ft | 363 kts | 90° |
| 2026-05-05 17:30 | 52.56715 | 12.14654 | 18095 ft | 363 kts | 91° |
| 2026-05-05 17:30 | 52.56710 | 12.18803 | 17573 ft | 362 kts | 91° |
| 2026-05-05 17:30 | 52.56723 | 12.22933 | 17024 ft | 357 kts | 88° |
| 2026-05-05 17:31 | 52.57028 | 12.26925 | 16500 ft | 346 kts | 82° |
| 2026-05-05 17:31 | 52.57408 | 12.30832 | 15980 ft | 337 kts | 82° |
| 2026-05-05 17:31 | 52.57774 | 12.34600 | 15480 ft | 332 kts | 82° |
| 2026-05-05 17:31 | 52.58141 | 12.38379 | 14967 ft | 328 kts | 82° |
| 2026-05-05 17:32 | 52.58498 | 12.42052 | 14496 ft | 321 kts | 82° |
| 2026-05-05 17:32 | 52.58840 | 12.45588 | 14030 ft | 314 kts | 82° |
| 2026-05-05 17:32 | 52.59177 | 12.49095 | 13627 ft | 306 kts | 82° |
| 2026-05-05 17:32 | 52.59506 | 12.52531 | 13256 ft | 296 kts | 82° |
| 2026-05-05 17:33 | 52.59815 | 12.55794 | 12832 ft | 289 kts | 82° |
| 2026-05-05 17:33 | 52.60126 | 12.59086 | 12311 ft | 286 kts | 82° |
| 2026-05-05 17:33 | 52.60428 | 12.62269 | 11790 ft | 283 kts | 82° |
| 2026-05-05 17:33 | 52.60678 | 12.65453 | 11284 ft | 279 kts | 89° |
| 2026-05-05 17:34 | 52.60548 | 12.68576 | 10917 ft | 273 kts | 102° |
| 2026-05-05 17:34 | 52.60022 | 12.71567 | 10423 ft | 271 kts | 115° |
| 2026-05-05 17:34 | 52.59133 | 12.74252 | 9961 ft | 265 kts | 128° |
| 2026-05-05 17:34 | 52.57948 | 12.76504 | 9856 ft | 259 kts | 140° |
| 2026-05-05 17:35 | 52.56538 | 12.78353 | 9860 ft | 258 kts | 146° |
| 2026-05-05 17:35 | 52.55093 | 12.80105 | 9854 ft | 258 kts | 146° |
| 2026-05-05 17:35 | 52.53662 | 12.81844 | 9666 ft | 255 kts | 146° |
| 2026-05-05 17:35 | 52.52236 | 12.83574 | 9333 ft | 254 kts | 146° |
| 2026-05-05 17:36 | 52.50814 | 12.85299 | 9036 ft | 254 kts | 146° |
| 2026-05-05 17:36 | 52.49393 | 12.87021 | 8716 ft | 253 kts | 146° |
| 2026-05-05 17:36 | 52.47979 | 12.88729 | 8410 ft | 252 kts | 146° |
| 2026-05-05 17:36 | 52.46569 | 12.90431 | 8094 ft | 250 kts | 145° |
| 2026-05-05 17:37 | 52.45178 | 12.92106 | 7642 ft | 249 kts | 145° |
| 2026-05-05 17:37 | 52.44254 | 12.93218 | 7383 ft | 248 kts | 145° |
| 2026-05-05 17:37 | 52.42394 | 12.95457 | 6881 ft | 247 kts | 146° |
| 2026-05-05 17:37 | 52.41014 | 12.97119 | 6506 ft | 246 kts | 145° |
| 2026-05-05 17:38 | 52.40078 | 12.98244 | 6267 ft | 246 kts | 144° |
| 2026-05-05 17:38 | 52.38660 | 12.99795 | 5935 ft | 244 kts | 154° |
| 2026-05-05 17:38 | 52.37078 | 13.00728 | 5663 ft | 241 kts | 169° |
| 2026-05-05 17:38 | 52.35422 | 13.00847 | 5366 ft | 238 kts | 192° |
| 2026-05-05 17:39 | 52.33926 | 12.99781 | 5066 ft | 235 kts | 219° |
| 2026-05-05 17:39 | 52.32900 | 12.97743 | 4758 ft | 234 kts | 241° |
| 2026-05-05 17:39 | 52.31944 | 12.95606 | 4439 ft | 233 kts | 219° |
| 2026-05-05 17:39 | 52.30484 | 12.94547 | 4129 ft | 233 kts | 187° |
| 2026-05-05 17:40 | 52.28905 | 12.94932 | 3812 ft | 232 kts | 153° |
| 2026-05-05 17:40 | 52.27720 | 12.96637 | 3485 ft | 227 kts | 120° |
| 2026-05-05 17:40 | 52.27239 | 12.99061 | 3141 ft | 226 kts | 98° |
| 2026-05-05 17:40 | 52.27030 | 13.01589 | 3006 ft | 224 kts | 95° |
| 2026-05-05 17:41 | 52.26848 | 13.04130 | 3009 ft | 225 kts | 96° |
| 2026-05-05 17:41 | 52.26665 | 13.06681 | 3012 ft | 228 kts | 95° |
| 2026-05-05 17:41 | 52.26486 | 13.09244 | 3012 ft | 226 kts | 95° |
| 2026-05-05 17:41 | 52.26344 | 13.11801 | 3010 ft | 224 kts | 88° |
| 2026-05-05 17:42 | 52.26703 | 13.14257 | 3015 ft | 223 kts | 68° |
| 2026-05-05 17:42 | 52.27254 | 13.16505 | 2994 ft | 208 kts | 67° |
| 2026-05-05 17:42 | 52.27774 | 13.18626 | 3011 ft | 190 kts | 67° |
| 2026-05-05 17:42 | 52.28221 | 13.20471 | 3024 ft | 159 kts | 68° |
| 2026-05-05 17:43 | 52.28605 | 13.22062 | 3010 ft | 145 kts | 67° |
| 2026-05-05 17:43 | 52.28964 | 13.23551 | 2986 ft | 140 kts | 68° |
| 2026-05-05 17:43 | 52.29318 | 13.25021 | 2916 ft | 138 kts | 67° |
| 2026-05-05 17:43 | 52.29669 | 13.26483 | 2771 ft | 137 kts | 68° |
| 2026-05-05 17:44 | 52.30013 | 13.27914 | 2601 ft | 134 kts | 68° |
| 2026-05-05 17:44 | 52.30354 | 13.29330 | 2436 ft | 132 kts | 67° |
| 2026-05-05 17:44 | 52.30687 | 13.30718 | 2257 ft | 133 kts | 68° |
| 2026-05-05 17:44 | 52.31024 | 13.32125 | 2080 ft | 133 kts | 67° |
| 2026-05-05 17:45 | 52.31360 | 13.33523 | 1903 ft | 132 kts | 68° |
| 2026-05-05 17:45 | 52.31579 | 13.34439 | 1792 ft | 130 kts | 68° |
| 2026-05-05 17:45 | 52.31881 | 13.35700 | 1639 ft | 131 kts | 68° |
| 2026-05-05 17:45 | 52.32209 | 13.37072 | 1451 ft | 129 kts | 66° |
| 2026-05-05 17:46 | 52.32536 | 13.38439 | 1287 ft | 129 kts | 67° |
| 2026-05-05 17:46 | 52.32871 | 13.39820 | 1108 ft | 130 kts | 68° |
| 2026-05-05 17:46 | 52.33199 | 13.41196 | 946 ft | 130 kts | 67° |
| 2026-05-05 17:46 | 52.33533 | 13.42556 | 765 ft | 129 kts | 68° |
| 2026-05-05 17:47 | 52.33860 | 13.43940 | 581 ft | 128 kts | 68° |
| 2026-05-05 17:47 | 52.34185 | 13.45314 | 407 ft | 130 kts | 67° |
| 2026-05-05 17:47 | 52.34512 | 13.46695 | 242 ft | 131 kts | 69° |
| 2026-05-05 17:47 | 52.34819 | 13.48009 | 154 ft | 106 kts | 69° |
| 2026-05-05 17:48 | 52.35025 | 13.48879 | 154 ft | 56 kts | 69° |
| 2026-05-05 17:48 | 52.35158 | 13.49253 | 154 ft | 29 kts | 47° |
| 2026-05-05 17:48 | 52.35292 | 13.49444 | 154 ft | 26 kts | 40° |
| 2026-05-05 17:48 | 52.35408 | 13.49594 | 154 ft | 22 kts | 38° |
| 2026-05-05 17:49 | 52.35477 | 13.49785 | 154 ft | 20 kts | 69° |
| 2026-05-05 17:49 | 52.35530 | 13.50007 | 154 ft | 22 kts | 69° |
| 2026-05-05 17:49 | 52.35582 | 13.50222 | 154 ft | 20 kts | 68° |
| 2026-05-05 17:49 | 52.35636 | 13.50450 | 155 ft | 23 kts | 70° |
| 2026-05-05 17:50 | 52.35689 | 13.50679 | 155 ft | 21 kts | 69° |
| 2026-05-05 17:50 | 52.35751 | 13.50830 | 155 ft | 15 kts | 5° |
| 2026-05-05 17:50 | 52.35853 | 13.50774 | 155 ft | 16 kts | 339° |
| 2026-05-05 17:50 | 52.35954 | 13.50709 | 155 ft | 15 kts | 339° |
| 2026-05-05 17:51 | 52.36040 | 13.50655 | 155 ft | 8 kts | 343° |
| 2026-05-05 17:51 | 52.36077 | 13.50718 | 155 ft | 9 kts | 47° |
| 2026-05-05 17:51 | 52.36093 | 13.50787 | 155 ft | 4 kts | 68° |
| 2026-05-05 17:51 | 52.36097 | 13.50802 | 155 ft | 0 kts | 68° |